Time;durP1;ratioP1;P1;durP2;ratioP2;P2;SDS_P1;SDS_P2;PMS_P1;PMS_P2;Temp;Humidity;BMP_temperature;BMP_pressure;BME280_temperature;BME280_humidity;BME280_pressure;Samples;Min_cycle;Max_cycle;Signal;HPM_P1;HPM_P2
2022/09/06 00:00:38;;;;;;;7.00;6.30;;;17.10;99.90;;;;;;5124836;27;20444;-66
2022/09/06 00:03:05;;;;;;;6.27;5.77;;;17.00;99.90;;;;;;5125378;27;20517;-67
2022/09/06 00:05:32;;;;;;;6.97;5.50;;;17.00;99.90;;;;;;5125031;27;20441;-66
2022/09/06 00:08:00;;;;;;;7.00;6.40;;;16.90;99.90;;;;;;5120483;27;20468;-67
2022/09/06 00:10:30;;;;;;;6.73;6.07;;;16.80;99.90;;;;;;5114187;27;20807;-67
2022/09/06 00:13:00;;;;;;;7.77;6.33;;;16.80;99.90;;;;;;5108471;28;20442;-67
2022/09/06 00:15:27;;;;;;;7.03;6.43;;;16.80;99.90;;;;;;5108985;28;20488;-67
2022/09/06 00:17:54;;;;;;;8.60;6.13;;;16.90;99.90;;;;;;5109145;28;20457;-67
2022/09/06 00:20:21;;;;;;;7.10;5.70;;;16.90;99.90;;;;;;5109071;28;20448;-67
2022/09/06 00:22:48;;;;;;;7.70;6.17;;;16.80;99.90;;;;;;5123469;27;20455;-67
2022/09/06 00:25:15;;;;;;;7.03;5.90;;;16.80;99.90;;;;;;5121225;27;20817;-67
2022/09/06 00:27:43;;;;;;;6.03;5.40;;;16.80;99.90;;;;;;5110020;28;20445;-68
2022/09/06 00:30:11;;;;;;;5.10;4.60;;;16.80;99.90;;;;;;5109418;28;20444;-68
2022/09/06 00:32:37;;;;;;;5.60;5.00;;;16.80;99.90;;;;;;5110085;28;20449;-68
2022/09/06 00:35:05;;;;;;;6.37;5.87;;;16.80;99.90;;;;;;5110142;28;20485;-68
2022/09/06 00:37:32;;;;;;;6.27;5.67;;;16.60;99.90;;;;;;5109945;28;20461;-68
2022/09/06 00:40:00;;;;;;;6.43;5.80;;;16.60;99.90;;;;;;5110236;28;20492;-68
2022/09/06 00:42:27;;;;;;;6.73;6.10;;;16.50;99.90;;;;;;5110148;28;20476;-68
2022/09/06 00:44:55;;;;;;;5.83;5.30;;;16.60;99.90;;;;;;5110362;28;20467;-68
2022/09/06 00:47:22;;;;;;;10.30;6.33;;;16.60;99.90;;;;;;5110691;28;20448;-68
2022/09/06 00:49:52;;;;;;;7.43;5.80;;;16.70;99.90;;;;;;5110481;28;20453;-68
2022/09/06 00:52:19;;;;;;;6.73;6.13;;;16.70;99.90;;;;;;5109903;28;20463;-68
2022/09/06 00:54:47;;;;;;;6.13;5.20;;;16.70;99.90;;;;;;5109823;28;20504;-68
2022/09/06 00:57:15;;;;;;;8.47;5.70;;;16.70;99.90;;;;;;5110096;28;20949;-68
2022/09/06 00:59:43;;;;;;;6.53;5.70;;;16.60;99.90;;;;;;5109983;28;20449;-67
2022/09/06 01:02:11;;;;;;;5.83;5.10;;;16.60;99.90;;;;;;5109708;28;20452;-66
2022/09/06 01:04:41;;;;;;;7.20;5.60;;;16.60;99.90;;;;;;5109935;28;20465;-66
2022/09/06 01:07:18;;;;;;;6.67;5.70;;;16.60;99.90;;;;;;5109913;28;20473;-67
2022/09/06 01:09:55;;;;;;;6.77;6.17;;;16.60;99.90;;;;;;5110150;28;20861;-67
2022/09/06 01:12:34;;;;;;;6.30;5.70;;;16.60;99.90;;;;;;5109801;28;20448;-67
2022/09/06 01:15:12;;;;;;;7.57;6.00;;;16.60;99.90;;;;;;5109830;28;20489;-67
2022/09/06 01:17:50;;;;;;;5.20;4.80;;;16.70;99.90;;;;;;5109835;28;20447;-67
2022/09/06 01:20:59;;;;;;;6.37;5.77;;;16.70;99.90;;;;;;5110038;28;20445;-67
2022/09/06 01:23:58;;;;;;;5.87;5.27;;;16.60;99.90;;;;;;5079263;28;20998;-67
2022/09/06 01:26:59;;;;;;;5.60;5.00;;;16.50;99.90;;;;;;5110030;28;20437;-67
2022/09/06 01:29:33;;;;;;;6.73;5.63;;;16.50;99.90;;;;;;5109876;28;20788;-67
2022/09/06 01:32:06;;;;;;;5.67;5.20;;;16.40;99.90;;;;;;5109522;28;20453;-67
2022/09/06 01:34:39;;;;;;;6.80;5.90;;;16.40;99.90;;;;;;5109840;28;20507;-67
2022/09/06 01:37:11;;;;;;;5.90;5.37;;;16.40;99.90;;;;;;5107959;28;20485;-67
2022/09/06 01:39:39;;;;;;;6.47;5.87;;;16.40;99.90;;;;;;5109418;28;20445;-68
2022/09/06 01:42:10;;;;;;;5.73;5.23;;;16.30;99.90;;;;;;5112743;28;20488;-66
2022/09/06 01:44:39;;;;;;;6.43;5.57;;;16.30;99.90;;;;;;5113333;27;20457;-67
2022/09/06 01:47:20;;;;;;;9.17;7.30;;;16.20;99.90;;;;;;5112231;28;20441;-67
2022/09/06 01:49:59;;;;;;;8.07;7.20;;;16.30;99.90;;;;;;5113354;28;20505;-68
2022/09/06 01:52:34;;;;;;;7.83;7.13;;;16.20;99.90;;;;;;5112983;28;20441;-67
2022/09/06 01:55:14;;;;;;;10.83;7.13;;;16.20;99.90;;;;;;5112624;28;20488;-67
2022/09/06 01:57:55;;;;;;;8.60;7.03;;;16.20;99.90;;;;;;5113281;28;20459;-67
2022/09/06 02:00:24;;;;;;;7.83;7.03;;;16.20;99.90;;;;;;5112996;28;20456;-66
2022/09/06 02:03:00;;;;;;;8.43;7.50;;;16.20;99.90;;;;;;5112584;28;20445;-67
2022/09/06 02:05:32;;;;;;;7.83;6.87;;;16.20;99.90;;;;;;5112820;28;20441;-67
2022/09/06 02:08:03;;;;;;;8.03;6.80;;;16.10;99.90;;;;;;5112701;28;20477;-67
2022/09/06 02:10:37;;;;;;;8.63;7.43;;;16.10;99.90;;;;;;5113088;28;20448;-68
2022/09/06 02:13:07;;;;;;;8.63;7.83;;;16.20;99.90;;;;;;5112645;28;20447;-66
2022/09/06 02:15:39;;;;;;;8.70;7.90;;;16.20;99.90;;;;;;5112981;28;20481;-66
2022/09/06 02:18:11;;;;;;;12.00;9.30;;;16.40;99.90;;;;;;5112753;28;20964;-66
2022/09/06 02:20:42;;;;;;;14.70;9.27;;;16.70;99.90;;;;;;5113176;28;20468;-68
2022/09/06 02:23:11;;;;;;;7.10;6.40;;;17.00;99.90;;;;;;5113478;28;20456;-67
2022/09/06 02:25:41;;;;;;;9.60;6.90;;;17.20;99.90;;;;;;5112831;28;20442;-68
2022/09/06 02:28:09;;;;;;;8.37;7.57;;;17.30;99.90;;;;;;5112678;28;20441;-66
2022/09/06 02:30:42;;;;;;;8.57;7.67;;;17.50;99.90;;;;;;5112622;28;20950;-65
2022/09/06 02:33:14;;;;;;;10.50;7.70;;;17.60;99.90;;;;;;5112414;28;20441;-65
2022/09/06 02:35:46;;;;;;;7.80;6.53;;;17.60;99.90;;;;;;5112181;28;20473;-64
2022/09/06 02:38:13;;;;;;;9.23;6.10;;;17.70;99.90;;;;;;5112475;28;20520;-66
2022/09/06 02:40:41;;;;;;;7.40;6.20;;;17.80;99.90;;;;;;5112317;28;20468;-65
2022/09/06 02:43:08;;;;;;;8.23;5.80;;;17.90;99.90;;;;;;5111660;28;20461;-65
2022/09/06 02:45:35;;;;;;;7.80;7.00;;;18.10;99.90;;;;;;5112142;28;20438;-66
2022/09/06 02:48:03;;;;;;;6.20;5.70;;;18.40;99.90;;;;;;5112123;28;20453;-65
2022/09/06 02:50:30;;;;;;;8.87;6.47;;;18.60;99.90;;;;;;5111686;28;21077;-65
2022/09/06 02:53:05;;;;;;;6.87;5.53;;;18.70;99.90;;;;;;5111690;28;20794;-65
2022/09/06 02:55:32;;;;;;;8.53;6.10;;;18.70;99.90;;;;;;5111897;28;20468;-66
2022/09/06 02:57:59;;;;;;;9.23;5.93;;;18.70;99.90;;;;;;5111859;28;20449;-66
2022/09/06 03:00:26;;;;;;;8.60;5.67;;;18.80;99.90;;;;;;5111683;28;20449;-66
2022/09/06 03:02:53;;;;;;;6.57;5.90;;;18.80;99.90;;;;;;5111475;28;20980;-66
2022/09/06 03:05:21;;;;;;;9.93;7.10;;;18.70;99.90;;;;;;5112568;28;20441;-66
2022/09/06 03:07:49;;;;;;;8.60;6.93;;;18.60;99.90;;;;;;5111728;28;20455;-66
2022/09/06 03:10:16;;;;;;;7.60;7.00;;;18.40;99.90;;;;;;5111527;28;20453;-67
2022/09/06 03:12:43;;;;;;;8.50;7.70;;;18.20;99.90;;;;;;5111318;28;20444;-67
2022/09/06 03:15:11;;;;;;;7.97;7.27;;;18.10;99.90;;;;;;5111439;28;20481;-66
2022/09/06 03:17:38;;;;;;;8.70;7.80;;;18.00;99.90;;;;;;5111575;27;20445;-67
2022/09/06 03:20:05;;;;;;;8.40;7.30;;;17.90;99.90;;;;;;5111469;28;20459;-67
2022/09/06 03:22:33;;;;;;;8.93;8.13;;;17.80;99.90;;;;;;5111108;28;20460;-67
2022/09/06 03:25:00;;;;;;;9.07;8.17;;;17.70;99.90;;;;;;5112211;28;20457;-67
2022/09/06 03:27:28;;;;;;;9.40;8.40;;;17.70;99.90;;;;;;5111257;27;20460;-67
2022/09/06 03:29:54;;;;;;;9.20;8.37;;;17.60;99.90;;;;;;5111105;28;20494;-67
2022/09/06 03:32:21;;;;;;;8.90;8.00;;;17.70;99.90;;;;;;5111146;28;20445;-67
2022/09/06 03:34:48;;;;;;;10.60;8.30;;;17.60;99.90;;;;;;5111047;28;21186;-67
2022/09/06 03:37:15;;;;;;;9.40;7.20;;;17.60;99.90;;;;;;5110811;27;20445;-67
2022/09/06 03:39:43;;;;;;;9.17;8.27;;;17.60;99.90;;;;;;5111104;28;20965;-67
2022/09/06 03:42:10;;;;;;;11.23;8.70;;;17.40;99.90;;;;;;5110830;28;20446;-67
2022/09/06 03:44:37;;;;;;;10.53;8.87;;;17.30;99.90;;;;;;5111167;28;20562;-67
2022/09/06 03:47:04;;;;;;;8.87;8.13;;;17.20;99.90;;;;;;5111294;28;20445;-67
2022/09/06 03:49:31;;;;;;;11.97;9.63;;;17.10;99.90;;;;;;5111386;28;20441;-67
2022/09/06 03:51:58;;;;;;;9.50;8.70;;;17.10;99.90;;;;;;5110799;28;20453;-67
2022/09/06 03:54:26;;;;;;;9.10;8.40;;;17.00;99.90;;;;;;5111063;28;20481;-67
2022/09/06 03:56:56;;;;;;;9.17;8.27;;;17.00;99.90;;;;;;5111022;28;20445;-67
2022/09/06 03:59:22;;;;;;;10.17;9.27;;;16.90;99.90;;;;;;5110861;28;20461;-67
2022/09/06 04:01:49;;;;;;;11.03;9.97;;;16.80;99.90;;;;;;5110778;28;20455;-67
2022/09/06 04:04:16;;;;;;;10.67;9.70;;;16.80;99.90;;;;;;5110213;28;20841;-67
2022/09/06 04:06:43;;;;;;;9.70;8.83;;;16.90;99.90;;;;;;5111221;28;20439;-67
2022/09/06 04:09:10;;;;;;;11.67;10.47;;;16.90;99.90;;;;;;5111024;28;20441;-67
2022/09/06 04:11:37;;;;;;;10.10;9.00;;;16.90;99.90;;;;;;5111118;28;20794;-66
2022/09/06 04:14:05;;;;;;;10.23;9.43;;;16.90;99.90;;;;;;5110552;28;20465;-67
2022/09/06 04:16:32;;;;;;;13.07;9.20;;;16.80;99.90;;;;;;5110867;28;20444;-67
2022/09/06 04:19:00;;;;;;;11.03;10.03;;;16.90;99.90;;;;;;5110587;27;20854;-67
2022/09/06 04:21:27;;;;;;;11.63;10.50;;;16.90;99.90;;;;;;5110512;28;20960;-67
2022/09/06 04:23:54;;;;;;;9.60;8.70;;;16.90;99.90;;;;;;5110037;28;20471;-67
2022/09/06 04:26:21;;;;;;;9.73;8.67;;;17.00;99.90;;;;;;5110505;28;20437;-67
2022/09/06 04:28:48;;;;;;;10.63;9.53;;;17.00;99.90;;;;;;5110350;28;20445;-67
2022/09/06 04:31:16;;;;;;;10.43;9.43;;;17.00;99.90;;;;;;5110067;28;20441;-67
2022/09/06 04:33:44;;;;;;;9.73;8.83;;;16.90;99.90;;;;;;5109682;28;21005;-67
2022/09/06 04:36:12;;;;;;;10.63;9.30;;;16.90;99.90;;;;;;5110185;28;20476;-66
2022/09/06 04:38:40;;;;;;;10.80;9.70;;;17.00;99.90;;;;;;5110316;28;20448;-67
2022/09/06 04:41:08;;;;;;;10.40;9.40;;;16.90;99.90;;;;;;5110275;28;20905;-67
2022/09/06 04:43:35;;;;;;;11.17;9.60;;;17.00;99.90;;;;;;5109684;28;20465;-67
2022/09/06 04:46:04;;;;;;;10.37;9.37;;;17.00;99.90;;;;;;5110360;28;20789;-67
2022/09/06 04:48:33;;;;;;;11.17;10.07;;;17.00;99.90;;;;;;5110163;28;20452;-67
2022/09/06 04:50:59;;;;;;;12.70;9.90;;;16.90;99.90;;;;;;5110426;28;20845;-67
2022/09/06 04:53:26;;;;;;;10.97;9.80;;;16.90;99.90;;;;;;5109756;28;20465;-67
2022/09/06 04:55:56;;;;;;;12.17;11.00;;;16.90;99.90;;;;;;5110005;28;20483;-67
2022/09/06 04:58:22;;;;;;;13.33;11.93;;;16.90;99.90;;;;;;5110264;28;20453;-67
2022/09/06 05:00:50;;;;;;;13.43;10.73;;;16.90;99.90;;;;;;5110118;28;20445;-65
2022/09/06 05:03:17;;;;;;;13.13;11.10;;;17.10;99.90;;;;;;5109286;28;20478;-67
2022/09/06 05:05:45;;;;;;;13.30;12.10;;;17.10;99.90;;;;;;5110096;28;20460;-67
2022/09/06 05:08:12;;;;;;;11.90;10.80;;;17.10;99.90;;;;;;5110002;28;20456;-67
2022/09/06 05:10:39;;;;;;;11.80;10.00;;;17.10;99.90;;;;;;5109804;28;20437;-67
2022/09/06 05:13:05;;;;;;;12.30;11.20;;;17.10;99.90;;;;;;5109562;28;21137;-67
2022/09/06 05:15:32;;;;;;;12.93;11.50;;;17.10;99.90;;;;;;5113438;28;20860;-67
2022/09/06 05:18:03;;;;;;;13.57;10.77;;;17.20;99.90;;;;;;5114200;28;20447;-67
2022/09/06 05:20:30;;;;;;;11.47;10.40;;;17.20;99.90;;;;;;5114010;28;20448;-67
2022/09/06 05:22:59;;;;;;;12.70;11.50;;;17.20;99.90;;;;;;5113602;28;20958;-67
2022/09/06 05:25:25;;;;;;;11.97;10.77;;;17.30;99.90;;;;;;5113793;28;20447;-66
2022/09/06 05:27:52;;;;;;;10.87;9.87;;;17.30;99.90;;;;;;5114011;28;20449;-67
2022/09/06 05:30:19;;;;;;;10.93;9.93;;;17.30;99.90;;;;;;5113648;27;20453;-67
2022/09/06 05:32:46;;;;;;;11.90;10.80;;;17.30;99.90;;;;;;5113444;28;20441;-66
2022/09/06 05:35:13;;;;;;;11.30;10.30;;;17.40;99.90;;;;;;5113526;28;20602;-66
2022/09/06 05:37:39;;;;;;;13.93;10.97;;;17.50;99.90;;;;;;5113488;28;20457;-66
2022/09/06 05:40:09;;;;;;;12.67;11.47;;;17.50;99.90;;;;;;5113782;28;20445;-67
2022/09/06 05:42:36;;;;;;;12.00;10.90;;;17.50;99.90;;;;;;5113461;28;20440;-67
2022/09/06 05:45:02;;;;;;;11.50;10.33;;;17.60;99.90;;;;;;5113527;28;20471;-66
2022/09/06 05:47:33;;;;;;;11.17;9.97;;;17.60;99.90;;;;;;5113630;28;20448;-67
2022/09/06 05:49:59;;;;;;;10.90;10.00;;;17.60;99.90;;;;;;5113742;28;20945;-68
2022/09/06 05:52:26;;;;;;;11.83;10.60;;;17.70;99.90;;;;;;5113422;28;20536;-67
2022/09/06 05:54:53;;;;;;;10.43;9.33;;;17.80;99.90;;;;;;5113731;28;20476;-67
2022/09/06 05:57:21;;;;;;;11.33;10.33;;;17.80;99.90;;;;;;5113612;28;20449;-66
2022/09/06 05:59:48;;;;;;;11.10;10.10;;;17.90;99.90;;;;;;5113336;28;20973;-67
2022/09/06 06:02:15;;;;;;;12.17;10.90;;;18.00;99.90;;;;;;5113165;28;20529;-66
2022/09/06 06:04:42;;;;;;;11.20;10.07;;;18.00;99.90;;;;;;5113611;28;20468;-66
2022/09/06 06:07:08;;;;;;;10.67;9.60;;;18.00;99.90;;;;;;5113620;28;20437;-66
2022/09/06 06:09:35;;;;;;;11.13;10.13;;;18.10;99.90;;;;;;5113474;28;20449;-66
2022/09/06 06:12:02;;;;;;;9.93;8.93;;;18.10;99.90;;;;;;5112865;28;20449;-66
2022/09/06 06:14:31;;;;;;;10.63;9.63;;;18.20;99.90;;;;;;5113082;28;20487;-67
2022/09/06 06:16:57;;;;;;;11.30;10.20;;;18.20;99.90;;;;;;5112870;28;20481;-67
2022/09/06 06:19:25;;;;;;;9.93;9.03;;;18.30;99.90;;;;;;5112805;28;20446;-67
2022/09/06 06:21:54;;;;;;;14.03;10.63;;;18.30;99.90;;;;;;5112505;28;20445;-67
2022/09/06 06:24:21;;;;;;;12.00;10.97;;;18.40;99.90;;;;;;5112829;27;20465;-67
2022/09/06 06:26:48;;;;;;;11.13;9.70;;;18.50;99.90;;;;;;5112311;28;20446;-66
2022/09/06 06:29:15;;;;;;;12.03;10.90;;;18.60;99.90;;;;;;5112580;28;20441;-66
2022/09/06 06:31:43;;;;;;;10.60;9.60;;;18.60;99.90;;;;;;5112557;28;20457;-66
2022/09/06 06:34:11;;;;;;;9.60;8.60;;;18.70;99.90;;;;;;5112350;28;20845;-66
2022/09/06 06:36:38;;;;;;;10.00;9.10;;;18.80;99.90;;;;;;5112455;28;20881;-66
2022/09/06 06:39:07;;;;;;;8.33;7.63;;;18.90;99.90;;;;;;5112490;28;20451;-68
2022/09/06 06:41:34;;;;;;;10.60;9.47;;;19.00;99.90;;;;;;5112512;28;20544;-67
2022/09/06 06:44:02;;;;;;;9.63;8.70;;;19.00;99.90;;;;;;5111843;27;20465;-66
2022/09/06 06:46:32;;;;;;;9.37;8.47;;;19.10;99.90;;;;;;5112148;28;20437;-66
2022/09/06 06:49:00;;;;;;;9.60;8.70;;;19.10;99.90;;;;;;5112340;28;20816;-67
2022/09/06 06:51:28;;;;;;;11.43;8.90;;;19.20;99.90;;;;;;5112280;28;20441;-67
2022/09/06 06:53:56;;;;;;;9.13;8.20;;;19.30;99.90;;;;;;5111788;28;20466;-67
2022/09/06 06:56:25;;;;;;;10.43;8.30;;;19.30;99.90;;;;;;5111915;28;20480;-66
2022/09/06 06:58:53;;;;;;;8.83;6.83;;;19.50;99.90;;;;;;5111823;28;20822;-66
2022/09/06 07:01:21;;;;;;;7.60;6.80;;;19.60;99.90;;;;;;5112059;28;20811;-66
2022/09/06 07:03:49;;;;;;;8.63;6.73;;;19.80;99.90;;;;;;5111367;27;20476;-66
2022/09/06 07:06:18;;;;;;;7.20;6.60;;;20.10;99.90;;;;;;5111950;28;20444;-65
2022/09/06 07:08:45;;;;;;;7.20;6.50;;;20.20;99.90;;;;;;5111653;28;20445;-67
2022/09/06 07:11:14;;;;;;;7.23;6.63;;;20.40;99.90;;;;;;5111754;28;20442;-66
2022/09/06 07:13:41;;;;;;;9.10;7.27;;;20.50;99.90;;;;;;5111162;28;20457;-67
2022/09/06 07:16:11;;;;;;;6.97;6.37;;;20.60;99.90;;;;;;5111447;28;21028;-67
2022/09/06 07:18:40;;;;;;;6.87;6.13;;;20.60;99.90;;;;;;5111632;28;20443;-67
2022/09/06 07:21:11;;;;;;;6.23;5.73;;;20.60;99.90;;;;;;5111426;28;20502;-67
2022/09/06 07:23:40;;;;;;;7.90;6.50;;;20.60;99.90;;;;;;5111161;28;20465;-67
2022/09/06 07:26:07;;;;;;;6.80;6.10;;;20.70;99.90;;;;;;5111288;28;20441;-67
2022/09/06 07:28:34;;;;;;;6.90;6.20;;;20.60;99.90;;;;;;5111578;28;20446;-67
2022/09/06 07:31:01;;;;;;;6.97;6.27;;;20.70;99.90;;;;;;5111376;28;20856;-67
2022/09/06 07:33:27;;;;;;;7.47;6.13;;;20.70;99.90;;;;;;5110951;28;20469;-67
2022/09/06 07:35:59;;;;;;;7.47;6.77;;;20.60;99.90;;;;;;5110873;28;20485;-67
2022/09/06 07:38:27;;;;;;;6.37;5.77;;;20.50;99.90;;;;;;5112643;27;20451;-68
2022/09/06 07:40:56;;;;;;;8.33;7.30;;;20.30;99.90;;;;;;5131611;27;20456;-67
2022/09/06 07:43:23;;;;;;;6.57;5.97;;;20.30;99.90;;;;;;5131912;27;21174;-67
2022/09/06 07:45:58;;;;;;;9.40;6.17;;;20.40;99.90;;;;;;5134691;27;20819;-67
2022/09/06 07:48:25;;;;;;;6.10;5.60;;;20.40;99.90;;;;;;5129443;27;20440;-66
2022/09/06 07:50:52;;;;;;;6.23;5.63;;;20.40;99.90;;;;;;5131649;27;20820;-67
2022/09/06 07:53:18;;;;;;;8.30;6.23;;;20.50;99.90;;;;;;5131141;27;20464;-66
2022/09/06 07:55:45;;;;;;;7.07;6.03;;;20.60;99.90;;;;;;5130990;27;20472;-66
2022/09/06 07:58:14;;;;;;;5.93;5.40;;;20.70;99.90;;;;;;5131721;27;20448;-68
2022/09/06 08:00:40;;;;;;;6.37;5.80;;;20.70;99.90;;;;;;5131637;27;20497;-66
2022/09/06 08:03:07;;;;;;;7.60;5.70;;;20.80;99.90;;;;;;5131065;27;20455;-67
2022/09/06 08:05:34;;;;;;;7.30;6.60;;;20.90;99.90;;;;;;5131389;27;20443;-67
2022/09/06 08:08:01;;;;;;;6.00;5.40;;;21.10;99.90;;;;;;5131473;27;20455;-67
2022/09/06 08:10:28;;;;;;;5.60;5.10;;;21.20;99.90;;;;;;5131217;27;20451;-67
2022/09/06 08:12:54;;;;;;;5.70;5.13;;;21.30;99.90;;;;;;5130711;27;20458;-65
2022/09/06 08:15:23;;;;;;;6.40;5.90;;;21.50;99.90;;;;;;5131048;27;20444;-67
2022/09/06 08:17:49;;;;;;;8.33;5.10;;;21.60;99.90;;;;;;5130742;27;20435;-65
2022/09/06 08:20:17;;;;;;;5.60;4.70;;;21.70;99.90;;;;;;5130815;27;20889;-67
2022/09/06 08:22:44;;;;;;;7.03;5.50;;;21.80;99.90;;;;;;5130793;27;20555;-67
2022/09/06 08:25:11;;;;;;;5.90;5.20;;;22.00;99.90;;;;;;5130721;27;20472;-68
2022/09/06 08:27:38;;;;;;;6.10;5.00;;;22.10;99.90;;;;;;5130972;27;20440;-67
2022/09/06 08:30:06;;;;;;;4.97;4.47;;;22.40;99.90;;;;;;5130609;27;20442;-66
2022/09/06 08:32:35;;;;;;;6.70;5.37;;;22.60;99.90;;;;;;5130507;27;20444;-66
2022/09/06 08:35:02;;;;;;;5.57;4.97;;;22.70;99.90;;;;;;5124173;27;20482;-67
2022/09/06 08:37:29;;;;;;;5.13;4.63;;;22.90;99.90;;;;;;5117431;27;20898;-66
2022/09/06 08:39:55;;;;;;;10.10;5.50;;;23.00;99.90;;;;;;5113263;27;20445;-65
2022/09/06 08:42:22;;;;;;;6.00;4.97;;;23.10;99.90;;;;;;5115710;27;20462;-67
2022/09/06 08:44:52;;;;;;;6.60;5.27;;;23.30;99.90;;;;;;5119270;27;20978;-66
2022/09/06 08:47:20;;;;;;;6.10;5.50;;;23.30;99.90;;;;;;5115013;27;20444;-67
2022/09/06 08:49:51;;;;;;;8.37;4.87;;;23.50;99.90;;;;;;5112478;27;20484;-67
2022/09/06 08:52:31;;;;;;;7.63;5.20;;;23.60;99.90;;;;;;5115937;28;20461;-67
2022/09/06 08:55:15;;;;;;;5.63;5.07;;;23.70;99.90;;;;;;5118784;27;20469;-67
2022/09/06 08:57:58;;;;;;;5.90;4.87;;;24.00;99.90;;;;;;5115509;28;21080;-67
2022/09/06 09:00:25;;;;;;;5.60;5.00;;;24.30;99.90;;;;;;5119986;28;20442;-66
2022/09/06 09:02:59;;;;;;;5.17;4.67;;;24.70;99.90;;;;;;5114205;27;20436;-66
2022/09/06 09:05:30;;;;;;;9.53;4.97;;;24.90;99.90;;;;;;5120122;27;20452;-66
2022/09/06 09:08:04;;;;;;;5.10;4.70;;;25.20;99.90;;;;;;5117112;28;20458;-66
2022/09/06 09:10:38;;;;;;;6.23;5.03;;;25.40;99.90;;;;;;5114809;28;20451;-67
2022/09/06 09:13:09;;;;;;;10.33;5.20;;;25.70;99.90;;;;;;5117119;27;20476;-68
2022/09/06 09:15:36;;;;;;;6.10;4.87;;;26.10;99.90;;;;;;5111788;28;20463;-67
2022/09/06 09:18:04;;;;;;;6.30;4.80;;;26.80;99.90;;;;;;5120584;28;21011;-67
2022/09/06 09:20:32;;;;;;;7.70;4.30;;;27.50;99.90;;;;;;5130758;27;20451;-65
2022/09/06 09:22:59;;;;;;;5.13;4.60;;;28.40;99.90;;;;;;5129723;27;20443;-65
2022/09/06 09:25:26;;;;;;;5.63;4.40;;;29.20;99.90;;;;;;5125691;27;20451;-67
2022/09/06 09:27:56;;;;;;;4.93;4.30;;;29.90;99.90;;;;;;5130274;27;20444;-67
2022/09/06 09:30:25;;;;;;;6.90;4.30;;;30.20;99.90;;;;;;5127641;28;20934;-67
2022/09/06 09:32:51;;;;;;;7.30;4.63;;;30.40;99.90;;;;;;5129641;27;20466;-68
2022/09/06 09:35:27;;;;;;;4.10;3.70;;;30.40;99.70;;;;;;5126000;28;20440;-67
2022/09/06 09:38:02;;;;;;;7.00;4.10;;;30.10;99.20;;;;;;5126968;27;20482;-67
2022/09/06 09:40:34;;;;;;;7.90;4.47;;;29.90;99.30;;;;;;5121715;27;20436;-67
2022/09/06 09:43:14;;;;;;;5.10;4.37;;;29.80;99.70;;;;;;5129644;27;21171;-68
2022/09/06 09:45:42;;;;;;;4.43;4.03;;;29.80;99.20;;;;;;5130176;27;20439;-67
2022/09/06 09:48:20;;;;;;;4.87;4.07;;;30.40;98.70;;;;;;5130104;27;20440;-67
2022/09/06 09:50:47;;;;;;;4.60;4.10;;;31.10;96.70;;;;;;5125566;28;20837;-67
2022/09/06 09:53:18;;;;;;;4.67;4.00;;;31.60;95.50;;;;;;5127041;27;20465;-67
2022/09/06 09:55:46;;;;;;;5.23;4.50;;;32.00;94.70;;;;;;5122509;28;21125;-67
2022/09/06 09:58:21;;;;;;;5.00;4.50;;;32.10;95.20;;;;;;5129795;27;20933;-67
2022/09/06 10:00:48;;;;;;;5.43;4.13;;;32.00;93.30;;;;;;5130377;27;20500;-68
2022/09/06 10:03:24;;;;;;;6.30;4.30;;;31.80;93.00;;;;;;5132516;27;20475;-68
2022/09/06 10:05:56;;;;;;;6.37;3.90;;;31.70;93.40;;;;;;5129150;27;20448;-68
2022/09/06 10:08:26;;;;;;;5.43;3.80;;;31.60;93.40;;;;;;5130875;27;20439;-68
2022/09/06 10:10:53;;;;;;;4.70;4.30;;;31.80;93.80;;;;;;5131280;27;20648;-67
2022/09/06 10:13:22;;;;;;;6.07;3.60;;;32.00;92.50;;;;;;5134059;27;20540;-68
2022/09/06 10:15:51;;;;;;;6.30;3.77;;;32.30;92.20;;;;;;5135818;27;20463;-68
2022/09/06 10:18:30;;;;;;;10.07;3.90;;;32.50;91.50;;;;;;5131600;27;20491;-67
2022/09/06 10:21:00;;;;;;;9.10;4.10;;;33.10;91.70;;;;;;5135678;27;20467;-67
2022/09/06 10:23:38;;;;;;;5.00;3.60;;;33.50;91.00;;;;;;5134767;27;20463;-68
2022/09/06 10:26:08;;;;;;;4.50;3.53;;;33.70;85.60;;;;;;5129550;27;20435;-68
2022/09/06 10:28:37;;;;;;;7.70;3.70;;;32.90;83.70;;;;;;5137086;27;20531;-68
2022/09/06 10:31:28;;;;;;;5.17;3.17;;;32.10;84.80;;;;;;5124057;27;20476;-68
2022/09/06 10:34:09;;;;;;;4.70;3.37;;;31.70;86.00;;;;;;5127312;27;20465;-67
2022/09/06 10:36:38;;;;;;;6.23;3.47;;;31.20;88.70;;;;;;5117932;27;20475;-67
2022/09/06 10:39:16;;;;;;;6.50;3.77;;;30.70;90.60;;;;;;5143589;27;20524;-66
2022/09/06 10:42:01;;;;;;;3.50;2.93;;;30.30;90.70;;;;;;5144277;27;20443;-65
2022/09/06 10:44:44;;;;;;;6.60;3.40;;;30.10;90.40;;;;;;5122964;27;21012;-68
2022/09/06 10:47:13;;;;;;;7.47;3.70;;;29.90;90.70;;;;;;5131829;27;20485;-67
2022/09/06 10:49:43;;;;;;;4.10;3.70;;;29.80;91.60;;;;;;5145459;27;20435;-67
2022/09/06 10:52:15;;;;;;;5.33;3.60;;;29.80;91.50;;;;;;5135683;27;20451;-67
2022/09/06 10:54:46;;;;;;;7.40;3.73;;;29.90;91.70;;;;;;5147670;27;20486;-65
2022/09/06 10:57:19;;;;;;;4.67;3.30;;;30.00;91.50;;;;;;5131935;27;20708;-67
2022/09/06 10:59:50;;;;;;;4.83;3.13;;;30.00;90.90;;;;;;5146111;27;20447;-67
2022/09/06 11:02:34;;;;;;;4.23;2.70;;;29.90;90.50;;;;;;5134079;27;20440;-67
2022/09/06 11:05:05;;;;;;;4.37;3.50;;;30.00;90.80;;;;;;5131900;27;20479;-67
2022/09/06 11:07:34;;;;;;;7.37;4.00;;;30.10;90.30;;;;;;5129272;27;20540;-66
2022/09/06 11:10:07;;;;;;;6.50;4.10;;;30.20;91.20;;;;;;5131884;27;20455;-66
2022/09/06 11:12:39;;;;;;;3.70;3.40;;;30.10;91.20;;;;;;5135950;27;20821;-67
2022/09/06 11:15:09;;;;;;;8.40;4.00;;;30.00;91.50;;;;;;5144327;27;20821;-68
2022/09/06 11:17:42;;;;;;;4.50;3.87;;;30.30;91.40;;;;;;5144058;27;20471;-67
2022/09/06 11:20:14;;;;;;;8.50;4.47;;;30.20;91.10;;;;;;5135556;27;20497;-67
2022/09/06 11:23:01;;;;;;;5.40;4.17;;;29.70;91.40;;;;;;5119831;27;20519;-67
2022/09/06 11:25:52;;;;;;;5.97;4.53;;;29.60;91.90;;;;;;5136059;27;20452;-67
2022/09/06 11:28:25;;;;;;;4.13;3.73;;;29.40;91.80;;;;;;5132440;27;20441;-67
2022/09/06 11:30:56;;;;;;;8.30;4.73;;;29.60;92.70;;;;;;5130503;27;20452;-67
2022/09/06 11:33:25;;;;;;;5.47;3.73;;;30.20;91.60;;;;;;5128866;27;20468;-67
2022/09/06 11:35:53;;;;;;;5.27;3.77;;;30.40;90.90;;;;;;5131409;27;20464;-67
2022/09/06 11:38:24;;;;;;;8.40;3.80;;;30.70;90.70;;;;;;5123842;27;20476;-67
2022/09/06 11:40:59;;;;;;;4.83;4.27;;;31.00;90.10;;;;;;5118714;27;20449;-67
2022/09/06 11:43:46;;;;;;;4.40;4.00;;;31.40;90.20;;;;;;5119312;27;20463;-66
2022/09/06 11:47:00;;;;;;;5.53;3.90;;;31.90;87.30;;;;;;5121707;27;20456;-67
2022/09/06 11:49:37;;;;;;;5.10;3.60;;;31.90;86.90;;;;;;5117653;27;20445;-67
2022/09/06 11:52:37;;;;;;;6.80;4.13;;;32.20;86.20;;;;;;5121254;27;20452;-67
2022/09/06 11:55:11;;;;;;;4.80;3.37;;;32.30;86.40;;;;;;5125531;27;20499;-67
2022/09/06 11:57:39;;;;;;;6.20;4.27;;;32.50;85.80;;;;;;5131121;27;20983;-67
2022/09/06 12:00:17;;;;;;;5.67;3.70;;;32.80;84.60;;;;;;5128450;27;20501;-67
2022/09/06 12:02:45;;;;;;;5.00;3.67;;;32.50;84.90;;;;;;5125772;27;20437;-66
2022/09/06 12:05:17;;;;;;;8.97;4.33;;;31.90;86.80;;;;;;5125670;27;20470;-66
2022/09/06 12:08:15;;;;;;;6.13;4.83;;;31.40;89.00;;;;;;5125958;27;20440;-66
2022/09/06 12:10:49;;;;;;;7.90;4.23;;;30.90;90.00;;;;;;5125214;27;20433;-65
2022/09/06 12:13:54;;;;;;;6.27;4.63;;;30.10;90.90;;;;;;5130772;27;20468;-67
2022/09/06 12:16:21;;;;;;;4.83;4.17;;;29.50;91.50;;;;;;5065202;28;20500;-66
2022/09/06 12:18:58;;;;;;;5.87;3.43;;;29.30;92.60;;;;;;5065927;28;20860;-66
2022/09/06 12:21:40;;;;;;;6.60;4.60;;;29.00;92.90;;;;;;5092911;27;20452;-69
2022/09/06 12:24:09;;;;;;;7.10;4.27;;;28.40;93.60;;;;;;5116318;27;20465;-67
2022/09/06 12:26:48;;;;;;;8.37;4.83;;;28.20;94.40;;;;;;5116874;27;20448;-67
2022/09/06 12:29:15;;;;;;;5.17;4.30;;;28.00;94.90;;;;;;5117362;27;20491;-68
2022/09/06 12:31:46;;;;;;;7.63;4.00;;;28.00;94.60;;;;;;5119106;27;20439;-68
2022/09/06 12:34:21;;;;;;;5.37;4.33;;;28.00;94.30;;;;;;5124127;27;20463;-68
2022/09/06 12:36:57;;;;;;;4.77;4.37;;;28.00;95.20;;;;;;5120767;27;20903;-68
2022/09/06 12:39:24;;;;;;;7.20;4.60;;;27.90;94.90;;;;;;5121421;27;20448;-68
2022/09/06 12:41:54;;;;;;;5.10;4.30;;;27.80;94.90;;;;;;5121490;27;20446;-68
2022/09/06 12:44:31;;;;;;;7.50;4.23;;;27.70;95.60;;;;;;5120847;27;20465;-68
2022/09/06 12:47:04;;;;;;;6.33;4.00;;;27.50;95.60;;;;;;5117413;27;20440;-68
2022/09/06 12:49:32;;;;;;;11.47;3.97;;;27.20;96.60;;;;;;5131773;27;20441;-68
2022/09/06 12:52:07;;;;;;;7.50;4.70;;;27.10;96.20;;;;;;5133022;27;20826;-68
2022/09/06 12:54:42;;;;;;;9.40;4.00;;;27.00;96.30;;;;;;5127761;27;20456;-68
2022/09/06 12:57:14;;;;;;;6.20;4.40;;;26.90;96.20;;;;;;5118406;28;20440;-67
2022/09/06 12:59:48;;;;;;;5.83;3.67;;;26.90;96.30;;;;;;5121317;28;20444;-67